createdAt,value
2023-06-26T00:02:50.435Z,16.36
2023-06-26T00:08:01.566Z,16.43
2023-06-26T00:13:09.460Z,16.31
2023-06-26T00:18:17.062Z,16.18
2023-06-26T00:23:24.702Z,16.23
2023-06-26T00:28:32.282Z,16.16
2023-06-26T00:33:39.905Z,16.17
2023-06-26T00:38:47.574Z,16.06
2023-06-26T00:43:55.228Z,15.98
2023-06-26T00:49:04.895Z,15.99
2023-06-26T00:54:12.815Z,15.83
2023-06-26T00:59:20.418Z,15.75
2023-06-26T01:04:28.729Z,15.74
2023-06-26T01:09:37.799Z,15.86
2023-06-26T01:14:45.494Z,15.65
2023-06-26T01:19:54.165Z,15.70
2023-06-26T01:25:18.896Z,15.77
2023-06-26T01:30:27.492Z,15.79
2023-06-26T01:35:35.477Z,15.76
2023-06-26T01:40:44.595Z,15.56
2023-06-26T01:45:57.219Z,15.29
2023-06-26T01:51:06.010Z,15.33
2023-06-26T01:56:18.086Z,15.46
2023-06-26T02:01:26.122Z,15.23
2023-06-26T02:06:34.189Z,15.15
2023-06-26T02:11:41.864Z,15.29
2023-06-26T02:16:49.527Z,15.35
2023-06-26T02:21:57.163Z,15.29
2023-06-26T02:27:04.960Z,15.29
2023-06-26T02:32:12.624Z,15.31
2023-06-26T02:37:20.270Z,15.25
2023-06-26T02:42:28.054Z,15.18
2023-06-26T02:47:35.745Z,15.17
2023-06-26T02:52:43.747Z,15.11
2023-06-26T02:57:51.707Z,15.11
2023-06-26T03:02:59.434Z,15.12
2023-06-26T03:08:07.843Z,15.20
2023-06-26T03:13:15.594Z,15.34
2023-06-26T03:18:23.155Z,15.25
2023-06-26T03:23:30.812Z,15.25
2023-06-26T03:28:38.440Z,15.28
2023-06-26T03:33:46.626Z,15.45
2023-06-26T03:38:57.940Z,15.49
2023-06-26T03:44:06.015Z,15.46
2023-06-26T03:49:13.607Z,15.75
2023-06-26T03:54:21.206Z,15.92
2023-06-26T03:59:28.823Z,16.00
2023-06-26T04:04:36.501Z,16.12
2023-06-26T04:09:44.133Z,16.20
2023-06-26T04:14:51.809Z,16.37
2023-06-26T04:19:59.645Z,16.57
2023-06-26T04:25:08.014Z,16.71
2023-06-26T04:30:18.015Z,16.96
2023-06-26T04:35:25.624Z,17.14
2023-06-26T04:40:33.331Z,17.36
2023-06-26T04:45:40.985Z,17.57
2023-06-26T04:50:55.209Z,17.83
2023-06-26T04:56:07.280Z,18.24
2023-06-26T05:01:15.722Z,18.50
2023-06-26T05:06:23.519Z,18.72
2023-06-26T05:11:31.165Z,18.92
2023-06-26T05:16:38.797Z,19.07
2023-06-26T05:21:47.299Z,19.34
2023-06-26T05:26:56.456Z,19.38
2023-06-26T05:32:05.182Z,19.45
2023-06-26T05:37:16.816Z,19.67
2023-06-26T05:42:25.630Z,20.00
2023-06-26T05:47:33.290Z,20.22
2023-06-26T05:52:42.104Z,20.43
2023-06-26T05:57:52.076Z,20.55
2023-06-26T06:03:00.261Z,20.82
2023-06-26T06:08:08.479Z,21.08
2023-06-26T06:13:16.745Z,21.37
2023-06-26T06:18:24.541Z,21.71
2023-06-26T06:23:32.242Z,21.88
2023-06-26T06:28:40.424Z,22.05
2023-06-26T06:33:50.644Z,22.39
2023-06-26T06:38:58.320Z,22.80
2023-06-26T06:44:06.334Z,23.05
2023-06-26T06:49:14.129Z,23.41
2023-06-26T06:54:22.674Z,23.74
2023-06-26T06:59:30.510Z,23.98
2023-06-26T07:04:38.111Z,24.21
2023-06-26T07:09:46.012Z,24.28
2023-06-26T07:14:55.065Z,24.44
2023-06-26T07:20:05.393Z,24.74
2023-06-26T07:25:13.167Z,25.03
2023-06-26T07:30:20.875Z,25.24
2023-06-26T07:35:28.805Z,25.34
2023-06-26T07:40:36.671Z,25.44
2023-06-26T07:45:44.424Z,25.53
2023-06-26T07:50:52.484Z,25.87
2023-06-26T07:56:00.310Z,26.22
2023-06-26T08:01:08.323Z,26.48
2023-06-26T08:06:15.996Z,26.47
2023-06-26T08:11:23.625Z,26.77
2023-06-26T08:16:31.261Z,26.88
2023-06-26T08:21:38.902Z,27.14
2023-06-26T08:26:46.992Z,27.67
2023-06-26T08:31:54.606Z,27.98
2023-06-26T08:37:02.572Z,28.28
2023-06-26T08:42:12.195Z,28.72
2023-06-26T08:47:22.787Z,29.06
2023-06-26T08:52:38.373Z,28.75
2023-06-26T08:57:47.854Z,29.06
2023-06-26T09:02:57.912Z,28.72
2023-06-26T09:08:06.288Z,29.03
2023-06-26T09:13:28.238Z,29.07
2023-06-26T09:18:37.968Z,29.40
2023-06-26T09:23:46.536Z,29.70
2023-06-26T09:28:56.107Z,29.81
2023-06-26T09:34:04.832Z,29.54
2023-06-26T09:39:13.849Z,29.88
2023-06-26T09:44:21.957Z,29.82
2023-06-26T09:49:30.013Z,29.64
2023-06-26T09:54:37.946Z,29.05
2023-06-26T09:59:46.492Z,28.90
2023-06-26T10:04:54.244Z,29.74
2023-06-26T10:10:04.958Z,29.86
2023-06-26T10:15:17.391Z,30.05
2023-06-26T10:20:27.112Z,30.61
2023-06-26T10:25:38.613Z,30.21
2023-06-26T10:30:48.574Z,30.58
2023-06-26T10:36:14.081Z,30.13
2023-06-26T10:41:25.446Z,30.21
2023-06-26T10:46:50.371Z,30.01
2023-06-26T10:52:02.327Z,30.73
2023-06-26T10:57:10.969Z,30.96
2023-06-26T11:02:19.457Z,30.94
2023-06-26T11:07:28.854Z,30.93
2023-06-26T11:12:42.926Z,31.47
2023-06-26T11:17:52.822Z,32.11
2023-06-26T11:23:01.067Z,32.21
2023-06-26T11:28:12.060Z,31.37
2023-06-26T11:33:19.704Z,30.31
2023-06-26T11:38:27.323Z,30.55
2023-06-26T11:43:37.334Z,31.13
2023-06-26T11:48:45.193Z,31.84
2023-06-26T11:53:54.621Z,32.36
2023-06-26T11:59:04.493Z,32.55
2023-06-26T12:04:14.061Z,31.53
2023-06-26T12:09:23.284Z,30.64
2023-06-26T12:14:32.935Z,30.73
2023-06-26T12:19:45.186Z,30.84
2023-06-26T12:24:52.974Z,30.79
2023-06-26T12:30:01.019Z,30.45
2023-06-26T12:35:11.418Z,30.49
2023-06-26T12:40:24.159Z,30.12
2023-06-26T12:45:42.189Z,29.66
2023-06-26T12:50:51.804Z,29.40
2023-06-26T12:55:59.413Z,29.48
2023-06-26T13:01:16.096Z,29.59
2023-06-26T13:06:23.940Z,29.85
2023-06-26T13:11:31.653Z,30.32
2023-06-26T13:16:39.684Z,30.45
2023-06-26T13:21:47.638Z,30.98
2023-06-26T13:26:55.252Z,31.18
2023-06-26T13:32:03.056Z,31.15
2023-06-26T13:37:10.748Z,30.83
2023-06-26T13:42:18.500Z,30.30
2023-06-26T13:47:26.886Z,30.08
2023-06-26T13:52:34.592Z,30.19
2023-06-26T13:57:42.559Z,30.12
2023-06-26T14:02:50.628Z,29.99
2023-06-26T14:07:59.828Z,30.06
2023-06-26T14:13:07.931Z,29.71
2023-06-26T14:18:15.609Z,30.11
2023-06-26T14:23:23.361Z,30.31
2023-06-26T14:28:31.000Z,29.93
2023-06-26T14:33:38.836Z,29.50
2023-06-26T14:38:46.568Z,29.23
2023-06-26T14:43:54.692Z,29.16
2023-06-26T14:49:02.949Z,29.16
2023-06-26T14:54:10.987Z,29.24
2023-06-26T14:59:18.612Z,29.63
2023-06-26T15:04:26.534Z,30.22
2023-06-26T15:09:35.001Z,30.09
2023-06-26T15:14:42.611Z,30.06
2023-06-26T15:19:50.230Z,29.65
2023-06-26T15:24:57.850Z,29.41
2023-06-26T15:30:07.062Z,29.43
2023-06-26T15:35:14.932Z,29.47
2023-06-26T15:40:22.953Z,29.27
2023-06-26T15:45:44.195Z,29.21
2023-06-26T15:51:04.206Z,29.17
2023-06-26T15:56:15.881Z,29.02
2023-06-26T16:01:25.607Z,28.97
2023-06-26T16:06:33.212Z,28.93
2023-06-26T16:11:40.882Z,28.92
2023-06-26T16:16:48.706Z,28.79
2023-06-26T16:21:56.374Z,28.61
2023-06-26T16:27:04.047Z,28.43
2023-06-26T16:32:11.955Z,28.32
2023-06-26T16:37:19.589Z,28.07
2023-06-26T16:42:27.261Z,27.75
2023-06-26T16:47:38.643Z,27.63
2023-06-26T16:52:50.185Z,27.62
2023-06-26T16:57:57.916Z,27.62
2023-06-26T17:03:05.796Z,27.56
2023-06-26T17:08:13.932Z,27.49
2023-06-26T17:13:21.576Z,27.42
2023-06-26T17:18:29.245Z,27.33
2023-06-26T17:23:37.416Z,27.25
2023-06-26T17:28:45.816Z,27.19
2023-06-26T17:33:53.571Z,27.09
2023-06-26T17:39:12.891Z,26.93
2023-06-26T17:44:22.792Z,26.76
2023-06-26T17:49:30.492Z,26.58
2023-06-26T17:54:38.348Z,26.43
2023-06-26T17:59:46.206Z,26.26
2023-06-26T18:04:59.401Z,26.10
2023-06-26T18:10:15.242Z,25.92
2023-06-26T18:15:23.715Z,25.67
2023-06-26T18:20:31.741Z,25.42
2023-06-26T18:25:39.388Z,25.13
2023-06-26T18:30:47.050Z,24.94
2023-06-26T18:35:54.684Z,24.77
2023-06-26T18:41:17.898Z,24.66
2023-06-26T18:46:47.980Z,24.53
2023-06-26T18:51:56.236Z,24.15
2023-06-26T19:10:33.025Z,20.99
2023-06-26T19:15:41.003Z,20.26
2023-06-26T19:20:49.021Z,20.29
2023-06-26T19:25:57.202Z,20.39
2023-06-26T19:31:05.054Z,20.40
2023-06-26T19:36:15.876Z,20.51
2023-06-26T19:45:42.424Z,20.72
2023-06-26T19:50:50.527Z,20.71
2023-06-26T19:55:58.322Z,20.83
2023-06-26T20:01:06.285Z,20.78
2023-06-26T20:06:14.029Z,20.53
2023-06-26T20:11:21.793Z,20.33
2023-06-26T20:16:29.688Z,20.31
2023-06-26T20:21:37.434Z,20.37
2023-06-26T20:26:45.656Z,20.37
2023-06-26T20:31:54.053Z,20.39
2023-06-26T20:37:03.002Z,20.33
2023-06-26T20:42:13.522Z,20.30
2023-06-26T20:47:24.410Z,20.36
2023-06-26T20:52:35.000Z,20.33
2023-06-26T20:57:42.913Z,20.29
2023-06-26T21:02:50.946Z,20.30
2023-06-26T21:07:58.839Z,20.21
2023-06-26T21:13:06.610Z,20.15
2023-06-26T21:18:14.361Z,20.05
2023-06-26T21:23:22.124Z,20.10
2023-06-26T21:28:29.904Z,20.00
2023-06-26T21:33:37.669Z,19.92
2023-06-26T21:38:45.449Z,19.98
2023-06-26T21:43:53.369Z,20.05
2023-06-26T21:49:01.273Z,19.88
2023-06-26T21:54:09.102Z,19.81
2023-06-26T21:59:16.904Z,19.88
2023-06-26T22:04:25.085Z,19.87
2023-06-26T22:09:32.937Z,19.81
2023-06-26T22:14:40.935Z,19.83
2023-06-26T22:19:48.753Z,19.86
2023-06-26T22:24:56.885Z,19.94
2023-06-26T22:30:05.350Z,19.91
2023-06-26T22:35:14.623Z,19.83
2023-06-26T22:40:22.621Z,19.75
2023-06-26T22:45:30.436Z,19.74
2023-06-26T22:50:38.250Z,19.72
2023-06-26T22:55:46.636Z,19.66
2023-06-26T23:00:55.533Z,19.62
2023-06-26T23:06:05.437Z,19.63
2023-06-26T23:11:13.509Z,19.52
2023-06-26T23:16:22.802Z,19.58
2023-06-26T23:21:30.678Z,19.55
2023-06-26T23:26:38.894Z,19.41
2023-06-26T23:31:48.959Z,19.28
2023-06-26T23:36:56.988Z,19.09
2023-06-26T23:42:05.424Z,18.96
2023-06-26T23:47:13.254Z,18.86
2023-06-26T23:52:21.007Z,18.74
2023-06-26T23:57:28.779Z,18.59
